createdAt,value
2019-03-11T00:00:35.018Z,97.83
2019-03-11T00:01:39.760Z,98.70
2019-03-11T00:02:45.344Z,98.43
2019-03-11T00:03:50.966Z,98.55
2019-03-11T00:04:56.562Z,98.85
2019-03-11T00:06:02.188Z,99.94
2019-03-11T00:07:07.839Z,99.76
2019-03-11T00:08:13.447Z,99.18
2019-03-11T00:09:19.043Z,99.36
2019-03-11T00:10:24.740Z,99.46
2019-03-11T00:11:30.380Z,98.52
2019-03-11T00:12:35.998Z,99.08
2019-03-11T00:13:41.666Z,99.06
2019-03-11T00:14:47.254Z,98.67
2019-03-11T00:15:52.903Z,98.87
2019-03-11T00:16:58.524Z,98.48
2019-03-11T00:18:03.750Z,98.79
2019-03-11T00:19:10.430Z,99.31
2019-03-11T00:20:15.791Z,99.02
2019-03-11T00:21:21.483Z,99.26
2019-03-11T00:22:27.075Z,98.91
2019-03-11T00:23:32.673Z,98.38
2019-03-11T00:24:38.275Z,98.12
2019-03-11T00:25:43.910Z,97.41
2019-03-11T00:26:49.535Z,96.47
2019-03-11T00:27:55.151Z,96.72
2019-03-11T00:29:00.735Z,97.03
2019-03-11T00:30:06.357Z,97.28
2019-03-11T00:31:11.932Z,97.24
2019-03-11T00:32:17.543Z,97.98
2019-03-11T00:33:23.130Z,97.77
2019-03-11T00:34:28.763Z,96.70
2019-03-11T00:35:34.349Z,96.27
2019-03-11T00:36:39.960Z,95.77
2019-03-11T00:37:45.181Z,96.08
2019-03-11T00:38:50.791Z,96.26
2019-03-11T00:39:56.414Z,96.73
2019-03-11T00:41:02.035Z,96.85
2019-03-11T00:42:08.556Z,96.35
2019-03-11T00:43:13.796Z,96.79
2019-03-11T00:44:19.380Z,96.71
2019-03-11T00:45:24.961Z,96.70
2019-03-11T00:46:30.564Z,96.54
2019-03-11T00:47:36.186Z,96.52
2019-03-11T00:48:41.843Z,97.15
2019-03-11T00:49:47.447Z,96.97
2019-03-11T00:50:53.109Z,97.00
2019-03-11T00:51:58.751Z,96.82
2019-03-11T00:53:03.968Z,97.33
2019-03-11T00:54:09.547Z,96.76
2019-03-11T00:55:14.429Z,96.64
2019-03-11T00:56:20.003Z,96.04
2019-03-11T00:57:25.624Z,95.66
2019-03-11T00:58:31.323Z,94.94
2019-03-11T00:59:36.946Z,94.90
2019-03-11T01:00:41.958Z,94.63
2019-03-11T01:01:47.610Z,95.18
2019-03-11T01:02:53.195Z,96.07
2019-03-11T01:03:58.793Z,95.57
2019-03-11T01:05:03.733Z,94.74
2019-03-11T01:06:09.325Z,94.22
2019-03-11T01:07:14.900Z,94.14
2019-03-11T01:08:20.517Z,94.21
2019-03-11T01:09:26.106Z,94.15
2019-03-11T01:10:31.823Z,93.85
2019-03-11T01:11:37.103Z,94.32
2019-03-11T01:12:42.748Z,94.99
2019-03-11T01:13:48.404Z,94.63
2019-03-11T01:14:54.025Z,94.85
2019-03-11T01:15:59.632Z,94.61
2019-03-11T01:17:05.318Z,94.79
2019-03-11T01:18:10.893Z,94.42
2019-03-11T01:19:16.460Z,93.86
2019-03-11T01:20:21.721Z,93.23
2019-03-11T01:21:27.342Z,93.38
2019-03-11T01:22:32.949Z,93.83
2019-03-11T01:23:38.551Z,94.30
2019-03-11T01:24:44.232Z,95.07
2019-03-11T01:25:49.869Z,94.33
2019-03-11T01:26:55.468Z,93.19
2019-03-11T01:28:01.114Z,92.73
2019-03-11T01:29:06.722Z,92.39
2019-03-11T01:30:13.319Z,92.84
2019-03-11T01:31:18.901Z,92.06
2019-03-11T01:32:24.548Z,92.34
2019-03-11T01:33:30.144Z,92.31
2019-03-11T01:34:35.778Z,91.30
2019-03-11T01:35:41.412Z,92.08
2019-03-11T01:36:46.660Z,91.54
2019-03-11T01:37:52.313Z,91.07
2019-03-11T01:38:57.897Z,90.75
2019-03-11T01:40:03.171Z,90.40
2019-03-11T01:41:08.762Z,90.42
2019-03-11T01:42:14.480Z,90.66
2019-03-11T01:43:19.735Z,91.30
2019-03-11T01:44:25.331Z,91.71
2019-03-11T01:45:30.907Z,90.99
2019-03-11T01:46:36.515Z,90.83
2019-03-11T01:47:42.265Z,90.42
2019-03-11T01:48:47.856Z,89.79
2019-03-11T01:49:53.444Z,89.74
2019-03-11T01:50:59.035Z,90.53
2019-03-11T01:52:04.636Z,90.24
2019-03-11T01:53:10.221Z,90.06
2019-03-11T01:54:15.794Z,89.88
2019-03-11T01:55:20.714Z,90.37
2019-03-11T01:56:26.328Z,90.12
2019-03-11T01:57:31.938Z,89.47
2019-03-11T01:58:37.509Z,89.72
2019-03-11T01:59:43.227Z,89.36
2019-03-11T02:00:48.813Z,89.93
2019-03-11T02:01:53.411Z,89.55
2019-03-11T02:02:59.061Z,89.60
2019-03-11T02:04:04.025Z,89.50
2019-03-11T02:05:08.948Z,88.77
2019-03-11T02:06:14.594Z,88.99
2019-03-11T02:07:19.924Z,89.01
2019-03-11T02:08:25.567Z,88.40
2019-03-11T02:09:31.144Z,88.61
2019-03-11T02:10:36.852Z,88.75
2019-03-11T02:11:42.509Z,88.19
2019-03-11T02:12:47.834Z,88.76
2019-03-11T02:13:53.402Z,88.81
2019-03-11T02:14:58.964Z,87.85
2019-03-11T02:16:04.231Z,87.54
2019-03-11T02:17:09.831Z,87.40
2019-03-11T02:18:15.484Z,88.47
2019-03-11T02:19:21.060Z,88.63
2019-03-11T02:20:26.921Z,88.66
2019-03-11T02:21:32.480Z,88.34
2019-03-11T02:22:38.109Z,88.19
2019-03-11T02:23:43.685Z,87.73
2019-03-11T02:24:49.265Z,87.89
2019-03-11T02:25:54.897Z,87.39
2019-03-11T02:27:00.483Z,86.99
2019-03-11T02:28:06.105Z,87.04
2019-03-11T02:29:11.691Z,86.92
2019-03-11T02:30:16.629Z,87.92
2019-03-11T02:31:22.265Z,87.46
2019-03-11T02:32:28.802Z,87.23
2019-03-11T02:33:33.551Z,87.40
2019-03-11T02:34:39.209Z,87.81
2019-03-11T02:35:44.807Z,88.91
2019-03-11T02:36:50.421Z,88.86
2019-03-11T02:37:55.392Z,88.79
2019-03-11T02:39:01.023Z,87.49
2019-03-11T02:40:05.953Z,87.83
2019-03-11T02:41:11.620Z,87.28
2019-03-11T02:42:17.201Z,87.32
2019-03-11T02:43:22.836Z,87.72
2019-03-11T02:44:28.424Z,87.32
2019-03-11T02:45:33.644Z,86.97
2019-03-11T02:46:39.288Z,86.36
2019-03-11T02:47:44.889Z,86.33
2019-03-11T02:48:50.526Z,87.18
2019-03-11T02:49:56.208Z,87.06
2019-03-11T02:51:01.912Z,86.62
2019-03-11T02:52:07.507Z,86.62
2019-03-11T02:53:13.191Z,86.41
2019-03-11T02:54:18.783Z,86.37
2019-03-11T02:55:24.369Z,86.05
2019-03-11T02:56:29.976Z,85.74
2019-03-11T02:57:35.598Z,86.00
2019-03-11T02:58:41.399Z,87.17
2019-03-11T02:59:47.034Z,87.21
2019-03-11T03:00:52.434Z,87.41
2019-03-11T03:02:02.293Z,87.20
2019-03-11T03:03:09.208Z,87.57
2019-03-11T03:04:14.602Z,88.24
2019-03-11T03:05:22.788Z,88.47
2019-03-11T03:06:28.463Z,88.68
2019-03-11T03:07:34.062Z,88.53
2019-03-11T03:08:39.670Z,88.49
2019-03-11T03:09:45.298Z,88.80
2019-03-11T03:10:50.897Z,88.87
2019-03-11T03:11:56.510Z,89.23
2019-03-11T03:13:02.063Z,89.92
2019-03-11T03:14:07.656Z,90.65
2019-03-11T03:15:12.546Z,90.92
2019-03-11T03:16:18.438Z,90.67
2019-03-11T03:17:24.032Z,91.06
2019-03-11T03:18:29.645Z,91.08
2019-03-11T03:19:35.267Z,90.55
2019-03-11T03:20:40.879Z,90.32
2019-03-11T03:21:46.476Z,91.00
2019-03-11T03:22:52.093Z,91.10
2019-03-11T03:23:57.700Z,90.83
2019-03-11T03:25:03.373Z,90.58
2019-03-11T03:26:08.994Z,90.30
2019-03-11T03:27:14.580Z,89.57
2019-03-11T03:28:20.172Z,90.23
2019-03-11T03:29:25.792Z,90.60
2019-03-11T03:30:31.363Z,90.83
2019-03-11T03:31:37.013Z,90.55
2019-03-11T03:32:42.627Z,90.46
2019-03-11T03:33:48.281Z,90.33
2019-03-11T03:34:53.856Z,90.89
2019-03-11T03:35:59.455Z,91.12
2019-03-11T03:37:05.047Z,91.52
2019-03-11T03:38:10.325Z,91.42
2019-03-11T03:39:15.986Z,91.08
2019-03-11T03:40:21.565Z,91.24
2019-03-11T03:41:27.154Z,91.84
2019-03-11T03:42:32.817Z,92.81
2019-03-11T03:43:38.463Z,93.23
2019-03-11T03:44:43.412Z,93.38
2019-03-11T03:45:48.358Z,93.60
2019-03-11T03:46:54.007Z,92.81
2019-03-11T03:47:58.922Z,92.01
2019-03-11T03:49:04.171Z,92.11
2019-03-11T03:50:09.092Z,92.47
2019-03-11T03:51:14.682Z,91.90
2019-03-11T03:52:20.304Z,91.38
2019-03-11T03:53:26.020Z,91.97
2019-03-11T03:54:31.656Z,92.81
2019-03-11T03:55:36.880Z,92.62
2019-03-11T03:56:42.468Z,92.34
2019-03-11T03:57:48.120Z,92.50
2019-03-11T03:58:53.768Z,91.89
2019-03-11T03:59:59.366Z,92.14
2019-03-11T04:01:04.963Z,93.01
2019-03-11T04:02:10.655Z,93.66
2019-03-11T04:03:16.267Z,93.51
2019-03-11T04:04:21.862Z,94.09
2019-03-11T04:05:27.437Z,93.86
2019-03-11T04:06:33.044Z,93.97
2019-03-11T04:07:38.654Z,93.38
2019-03-11T04:08:44.258Z,93.50
2019-03-11T04:09:49.901Z,93.58
2019-03-11T04:10:55.145Z,94.16
2019-03-11T04:12:00.777Z,95.08
2019-03-11T04:13:06.056Z,95.59
2019-03-11T04:14:11.740Z,95.83
2019-03-11T04:15:16.657Z,95.33
2019-03-11T04:16:22.297Z,94.70
2019-03-11T04:17:27.227Z,94.33
2019-03-11T04:18:43.923Z,94.62
2019-03-11T04:19:49.517Z,94.72
2019-03-11T04:20:55.161Z,93.95
2019-03-11T04:22:00.097Z,93.23
2019-03-11T04:23:05.412Z,93.24
2019-03-11T04:24:11.051Z,93.91
2019-03-11T04:25:16.288Z,93.04
2019-03-11T04:26:21.529Z,92.73
2019-03-11T04:27:26.764Z,92.74
2019-03-11T04:28:31.684Z,93.03
2019-03-11T04:29:37.321Z,93.71
2019-03-11T04:30:42.952Z,93.84
2019-03-11T04:31:48.592Z,92.71
2019-03-11T04:32:53.851Z,92.46
2019-03-11T04:33:59.103Z,92.13
2019-03-11T04:35:04.862Z,91.26
2019-03-11T04:36:10.159Z,91.71
2019-03-11T04:37:15.853Z,92.33
2019-03-11T04:38:21.437Z,92.38
2019-03-11T04:39:27.051Z,91.71
2019-03-11T04:40:32.661Z,91.50
2019-03-11T04:41:38.236Z,91.44
2019-03-11T04:42:43.842Z,91.50
2019-03-11T04:43:49.423Z,92.03
2019-03-11T04:44:55.058Z,91.70
2019-03-11T04:46:00.707Z,90.88
2019-03-11T04:47:05.994Z,91.14
2019-03-11T04:48:11.585Z,91.89
2019-03-11T04:49:17.203Z,91.85
2019-03-11T04:50:22.500Z,92.81
2019-03-11T04:51:28.177Z,92.56
2019-03-11T04:52:33.793Z,92.68
2019-03-11T04:53:39.426Z,92.74
2019-03-11T04:54:45.086Z,92.95
2019-03-11T04:55:50.676Z,93.76
2019-03-11T04:56:56.268Z,93.76
2019-03-11T04:58:01.887Z,93.57
2019-03-11T04:59:09.468Z,93.95
2019-03-11T05:00:15.821Z,94.75
2019-03-11T05:01:21.396Z,95.07
2019-03-11T05:02:26.976Z,94.98
2019-03-11T05:03:32.602Z,95.09
2019-03-11T05:04:38.258Z,94.77
2019-03-11T05:05:43.856Z,93.76
2019-03-11T05:06:49.424Z,93.27
2019-03-11T05:07:55.050Z,93.72
2019-03-11T05:09:00.661Z,94.32
2019-03-11T05:10:08.303Z,95.10
2019-03-11T05:11:13.596Z,95.47
2019-03-11T05:12:19.199Z,95.92
2019-03-11T05:13:24.803Z,96.30
2019-03-11T05:14:30.465Z,96.39
2019-03-11T05:15:36.089Z,96.97
2019-03-11T05:16:41.701Z,96.98
2019-03-11T05:17:48.540Z,96.15
2019-03-11T05:18:52.646Z,96.14
2019-03-11T05:19:58.298Z,95.21
2019-03-11T05:21:03.956Z,94.29
2019-03-11T05:22:09.530Z,93.47
2019-03-11T05:23:15.154Z,92.46
2019-03-11T05:24:20.783Z,93.27
2019-03-11T05:25:26.397Z,94.50
2019-03-11T05:26:32.036Z,94.08
2019-03-11T05:27:38.187Z,93.98
2019-03-11T05:28:43.794Z,93.89
2019-03-11T05:29:48.781Z,93.56
2019-03-11T05:30:54.362Z,93.02
2019-03-11T05:32:03.138Z,93.19
2019-03-11T05:33:08.785Z,92.96
2019-03-11T05:34:14.387Z,92.09
2019-03-11T05:35:20.045Z,92.48
2019-03-11T05:36:25.639Z,92.62
2019-03-11T05:37:31.244Z,92.25
2019-03-11T05:38:36.847Z,92.08
2019-03-11T05:39:45.817Z,91.35
2019-03-11T05:40:51.407Z,91.45
2019-03-11T05:41:57.034Z,91.10
2019-03-11T05:43:02.625Z,91.15
2019-03-11T05:44:08.212Z,90.85
2019-03-11T05:45:13.155Z,91.61
2019-03-11T05:46:18.757Z,92.36
2019-03-11T05:47:24.409Z,91.46
2019-03-11T05:48:29.981Z,91.21
2019-03-11T05:49:35.664Z,91.45
2019-03-11T05:50:41.303Z,91.76
2019-03-11T05:51:46.937Z,92.16
2019-03-11T05:52:52.509Z,91.77
2019-03-11T05:53:58.129Z,91.07
2019-03-11T05:55:03.402Z,90.77
2019-03-11T05:56:08.989Z,91.41
2019-03-11T05:57:14.618Z,91.55
2019-03-11T05:58:20.220Z,92.29
2019-03-11T05:59:25.832Z,92.51
2019-03-11T06:00:31.701Z,92.78
2019-03-11T06:01:37.292Z,92.68
2019-03-11T06:02:42.876Z,93.47
2019-03-11T06:03:48.537Z,93.58
2019-03-11T06:04:54.150Z,93.69
2019-03-11T06:05:59.390Z,94.82
2019-03-11T06:07:04.307Z,96.14
2019-03-11T06:08:09.239Z,97.32
2019-03-11T06:09:14.904Z,99.38
2019-03-11T06:10:20.223Z,100.00
2019-03-11T06:11:25.865Z,100.00
2019-03-11T06:12:31.461Z,100.00
2019-03-11T06:13:37.092Z,100.00
2019-03-11T06:14:42.773Z,100.00
2019-03-11T06:15:48.420Z,100.00
2019-03-11T06:16:54.051Z,100.00
2019-03-11T06:17:59.673Z,100.00
2019-03-11T06:19:05.557Z,100.00
2019-03-11T06:20:14.051Z,100.00
2019-03-11T06:21:19.497Z,100.00
2019-03-11T06:22:24.857Z,100.00
2019-03-11T06:23:30.453Z,100.00
2019-03-11T06:24:36.093Z,100.00
2019-03-11T06:25:41.772Z,100.00
2019-03-11T06:26:47.334Z,100.00
2019-03-11T06:27:52.618Z,100.00
2019-03-11T06:28:58.237Z,100.00
2019-03-11T06:30:03.260Z,100.00
2019-03-11T06:31:08.922Z,100.00
2019-03-11T06:32:14.527Z,100.00
2019-03-11T06:33:20.113Z,100.00
2019-03-11T06:34:25.728Z,100.00
2019-03-11T06:35:31.398Z,100.00
2019-03-11T06:36:37.054Z,100.00
2019-03-11T06:37:42.349Z,100.00
2019-03-11T06:38:48.013Z,100.00
2019-03-11T06:39:53.679Z,100.00
2019-03-11T06:40:59.409Z,100.00
2019-03-11T06:42:04.335Z,100.00
2019-03-11T06:43:10.159Z,100.00
2019-03-11T06:44:15.777Z,100.00
2019-03-11T06:45:21.447Z,100.00
2019-03-11T06:46:29.005Z,100.00
2019-03-11T06:47:35.594Z,100.00
2019-03-11T06:48:41.207Z,100.00
2019-03-11T06:49:46.849Z,100.00
2019-03-11T06:50:52.493Z,100.00
2019-03-11T06:51:58.117Z,100.00
2019-03-11T06:53:03.770Z,100.00
2019-03-11T06:54:09.406Z,100.00
2019-03-11T06:55:14.375Z,100.00
2019-03-11T06:56:20.014Z,100.00
2019-03-11T06:57:26.115Z,100.00
2019-03-11T06:58:31.775Z,100.00
2019-03-11T06:59:37.394Z,100.00
2019-03-11T07:00:43.094Z,100.00
2019-03-11T07:01:48.731Z,100.00
2019-03-11T07:02:54.388Z,100.00
2019-03-11T07:04:00.015Z,100.00
2019-03-11T07:05:05.028Z,100.00
2019-03-11T07:06:10.698Z,100.00
2019-03-11T07:07:16.345Z,100.00
2019-03-11T07:08:21.985Z,100.00
2019-03-11T07:09:27.720Z,100.00
2019-03-11T07:10:33.297Z,99.95
2019-03-11T07:11:38.898Z,99.25
2019-03-11T07:12:44.524Z,99.02
2019-03-11T07:13:50.118Z,97.43
2019-03-11T07:14:55.734Z,96.51
2019-03-11T07:16:01.486Z,95.88
2019-03-11T07:17:07.150Z,96.66
2019-03-11T07:18:12.762Z,97.06
2019-03-11T07:19:18.381Z,96.42
2019-03-11T07:20:23.719Z,96.14
2019-03-11T07:21:29.315Z,95.54
2019-03-11T07:22:34.894Z,95.70
2019-03-11T07:23:40.511Z,95.01
2019-03-11T07:24:46.210Z,95.08
2019-03-11T07:25:51.955Z,95.31
2019-03-11T07:26:57.618Z,95.37
2019-03-11T07:28:03.287Z,95.24
2019-03-11T07:29:08.879Z,95.45
2019-03-11T07:30:13.773Z,94.83
2019-03-11T07:31:19.442Z,94.19
2019-03-11T07:32:25.089Z,94.08
2019-03-11T07:33:30.680Z,93.34
2019-03-11T07:34:36.364Z,92.91
2019-03-11T07:35:41.998Z,92.80
2019-03-11T07:36:47.317Z,92.78
2019-03-11T07:37:52.969Z,93.00
2019-03-11T07:38:58.628Z,92.65
2019-03-11T07:40:03.578Z,92.66
2019-03-11T07:41:09.219Z,92.77
2019-03-11T07:42:14.936Z,92.91
2019-03-11T07:43:20.523Z,92.69
2019-03-11T07:44:26.399Z,91.74
2019-03-11T07:45:31.317Z,91.75
2019-03-11T07:46:37.007Z,91.99
2019-03-11T07:47:42.344Z,91.11
2019-03-11T07:48:48.031Z,90.85
2019-03-11T07:49:53.740Z,89.60
2019-03-11T07:50:59.417Z,89.83
2019-03-11T07:52:04.288Z,89.76
2019-03-11T07:53:09.543Z,89.12
2019-03-11T07:54:15.155Z,88.89
2019-03-11T07:55:20.848Z,89.74
2019-03-11T07:56:27.846Z,90.10
2019-03-11T07:57:33.433Z,90.48
2019-03-11T07:58:39.023Z,90.48
2019-03-11T07:59:44.620Z,89.73
2019-03-11T08:00:54.197Z,89.83
2019-03-11T08:01:55.841Z,89.38
2019-03-11T08:03:01.414Z,89.83
2019-03-11T08:04:07.053Z,91.62
2019-03-11T08:05:11.939Z,90.74
2019-03-11T08:06:18.928Z,90.81
2019-03-11T08:07:23.206Z,90.76
2019-03-11T08:08:28.799Z,90.64
2019-03-11T08:09:38.123Z,90.63
2019-03-11T08:10:40.002Z,90.35
2019-03-11T08:11:45.605Z,89.84
2019-03-11T08:12:51.226Z,91.03
2019-03-11T08:13:56.855Z,90.45
2019-03-11T08:15:02.098Z,89.55
2019-03-11T08:16:07.733Z,89.47
2019-03-11T08:17:13.330Z,89.56
2019-03-11T08:18:18.942Z,89.82
2019-03-11T08:19:24.542Z,89.94
2019-03-11T08:20:30.120Z,90.05
2019-03-11T08:21:35.738Z,90.63
2019-03-11T08:22:41.017Z,91.55
2019-03-11T08:23:46.706Z,89.80
2019-03-11T08:24:52.239Z,89.04
2019-03-11T08:25:57.873Z,89.87
2019-03-11T08:27:03.111Z,90.05
2019-03-11T08:28:08.672Z,89.89
2019-03-11T08:29:14.246Z,90.45
2019-03-11T08:30:20.697Z,89.54
2019-03-11T08:31:26.478Z,87.04
2019-03-11T08:32:32.091Z,87.15
2019-03-11T08:33:37.712Z,84.28
2019-03-11T08:34:43.305Z,83.63
2019-03-11T08:35:48.902Z,81.92
2019-03-11T08:36:54.622Z,81.79
2019-03-11T08:38:04.955Z,81.85
2019-03-11T08:39:05.235Z,81.72
2019-03-11T08:40:24.986Z,81.34
2019-03-11T08:41:30.615Z,80.50
2019-03-11T08:42:36.197Z,79.49
2019-03-11T08:43:42.573Z,79.92
2019-03-11T08:44:48.150Z,79.87
2019-03-11T08:45:53.835Z,80.66
2019-03-11T08:46:59.437Z,80.49
2019-03-11T08:48:04.713Z,79.82
2019-03-11T08:49:10.364Z,78.15
2019-03-11T08:50:15.317Z,78.01
2019-03-11T08:51:20.954Z,78.66
2019-03-11T08:52:26.557Z,78.36
2019-03-11T08:53:32.204Z,78.66
2019-03-11T08:54:38.631Z,78.78
2019-03-11T08:55:44.268Z,78.74
2019-03-11T08:56:51.131Z,76.30
2019-03-11T08:57:56.759Z,74.83
2019-03-11T08:59:02.511Z,75.85
2019-03-11T09:00:08.211Z,75.57
2019-03-11T09:01:13.839Z,74.25
2019-03-11T09:02:19.413Z,74.07
2019-03-11T09:03:25.023Z,74.87
2019-03-11T09:04:30.627Z,75.60
2019-03-11T09:05:36.279Z,74.15
2019-03-11T09:06:41.878Z,75.79
2019-03-11T09:07:46.891Z,74.94
2019-03-11T09:08:52.483Z,73.99
2019-03-11T09:09:58.072Z,73.34
2019-03-11T09:11:03.708Z,72.87
2019-03-11T09:12:09.408Z,73.66
2019-03-11T09:13:14.982Z,74.86
2019-03-11T09:14:20.557Z,73.34
2019-03-11T09:15:26.131Z,74.20
2019-03-11T09:16:33.464Z,73.89
2019-03-11T09:17:39.062Z,75.00
2019-03-11T09:18:44.692Z,75.60
2019-03-11T09:19:49.972Z,76.72
2019-03-11T09:20:55.564Z,76.82
2019-03-11T09:22:01.157Z,76.98
2019-03-11T09:23:06.747Z,77.76
2019-03-11T09:24:19.151Z,79.17
2019-03-11T09:25:24.790Z,79.69
2019-03-11T09:26:30.549Z,78.49
2019-03-11T09:27:36.105Z,78.74
2019-03-11T09:28:41.709Z,78.61
2019-03-11T09:29:47.285Z,76.64
2019-03-11T09:30:52.937Z,77.61
2019-03-11T09:31:58.543Z,77.36
2019-03-11T09:33:04.139Z,77.01
2019-03-11T09:34:09.716Z,76.55
2019-03-11T09:35:14.947Z,77.39
2019-03-11T09:36:20.562Z,78.12
2019-03-11T09:37:26.233Z,77.10
2019-03-11T09:38:31.825Z,76.95
2019-03-11T09:39:37.470Z,77.28
2019-03-11T09:40:43.020Z,77.28
2019-03-11T09:41:48.668Z,76.63
2019-03-11T09:42:53.964Z,77.49
2019-03-11T09:43:59.541Z,77.66
2019-03-11T09:45:13.254Z,77.32
2019-03-11T09:46:18.862Z,75.00
2019-03-11T09:47:24.507Z,76.33
2019-03-11T09:48:30.106Z,77.35
2019-03-11T09:49:35.689Z,76.88
2019-03-11T09:50:41.255Z,75.73
2019-03-11T09:51:46.874Z,74.44
2019-03-11T09:52:52.442Z,76.22
2019-03-11T09:53:58.056Z,76.24
2019-03-11T09:55:03.017Z,72.60
2019-03-11T09:56:09.693Z,74.12
2019-03-11T09:57:13.677Z,72.45
2019-03-11T09:58:18.951Z,72.85
2019-03-11T09:59:24.207Z,71.71
2019-03-11T10:00:29.925Z,72.33
2019-03-11T10:01:35.611Z,71.01
2019-03-11T10:02:51.626Z,71.45
2019-03-11T10:03:46.497Z,71.30
2019-03-11T10:04:52.126Z,71.57
2019-03-11T10:05:57.740Z,71.90
2019-03-11T10:07:03.355Z,70.93
2019-03-11T10:08:10.791Z,70.98
2019-03-11T10:09:13.447Z,71.90
2019-03-11T10:10:19.987Z,72.10
2019-03-11T10:11:25.639Z,72.58
2019-03-11T10:12:31.240Z,72.17
2019-03-11T10:13:36.894Z,71.82
2019-03-11T10:14:42.504Z,72.43
2019-03-11T10:15:48.145Z,72.90
2019-03-11T10:16:53.811Z,73.00
2019-03-11T10:17:59.387Z,72.52
2019-03-11T10:19:04.819Z,72.12
2019-03-11T10:20:09.694Z,71.75
2019-03-11T10:21:15.286Z,71.37
2019-03-11T10:22:22.756Z,72.18
2019-03-11T10:23:31.930Z,71.81
2019-03-11T10:24:34.037Z,72.10
2019-03-11T10:25:39.640Z,70.97
2019-03-11T10:26:44.906Z,71.57
2019-03-11T10:27:50.535Z,72.25
2019-03-11T10:28:57.721Z,71.80
2019-03-11T10:30:02.969Z,71.97
2019-03-11T10:31:08.641Z,72.15
2019-03-11T10:32:14.252Z,72.33
2019-03-11T10:33:19.513Z,72.74
2019-03-11T10:34:25.115Z,72.30
2019-03-11T10:35:32.629Z,72.41
2019-03-11T10:36:36.434Z,72.19
2019-03-11T10:37:41.697Z,72.33
2019-03-11T10:38:47.298Z,72.73
2019-03-11T10:39:52.895Z,72.78
2019-03-11T10:40:57.797Z,72.51
2019-03-11T10:42:03.032Z,72.65
2019-03-11T10:43:08.296Z,72.23
2019-03-11T10:44:13.903Z,72.89
2019-03-11T10:45:26.532Z,73.71
2019-03-11T10:46:24.424Z,74.07
2019-03-11T10:47:30.029Z,73.30
2019-03-11T10:48:37.561Z,73.37
2019-03-11T10:49:41.027Z,72.99
2019-03-11T10:50:46.624Z,71.36
2019-03-11T10:51:52.433Z,72.45
2019-03-11T10:52:58.038Z,73.62
2019-03-11T10:54:03.645Z,73.45
2019-03-11T10:55:09.268Z,72.21
2019-03-11T10:56:14.539Z,72.83
2019-03-11T10:57:20.145Z,73.85
2019-03-11T10:58:25.738Z,73.56
2019-03-11T10:59:31.334Z,74.17
2019-03-11T11:00:36.399Z,72.96
2019-03-11T11:01:41.651Z,74.18
2019-03-11T11:02:46.942Z,74.06
2019-03-11T11:03:52.514Z,73.90
2019-03-11T11:04:58.129Z,75.32
2019-03-11T11:06:03.727Z,75.68
2019-03-11T11:07:09.417Z,74.88
2019-03-11T11:08:14.987Z,74.36
2019-03-11T11:09:20.581Z,74.43
2019-03-11T11:10:25.811Z,73.81
2019-03-11T11:11:31.369Z,73.59
2019-03-11T11:12:36.664Z,72.82
2019-03-11T11:13:42.234Z,73.46
2019-03-11T11:14:47.941Z,73.19
2019-03-11T11:15:53.597Z,73.92
2019-03-11T11:16:59.163Z,72.08
2019-03-11T11:18:04.090Z,71.93
2019-03-11T11:19:09.698Z,71.90
2019-03-11T11:20:14.713Z,72.41
2019-03-11T11:21:20.294Z,72.25
2019-03-11T11:22:25.524Z,70.90
2019-03-11T11:23:32.434Z,71.52
2019-03-11T11:24:39.375Z,70.94
2019-03-11T11:25:44.998Z,70.32
2019-03-11T11:26:50.601Z,69.41
2019-03-11T11:27:55.536Z,69.77
2019-03-11T11:29:01.254Z,70.01
2019-03-11T11:30:07.864Z,69.31
2019-03-11T11:31:15.458Z,68.38
2019-03-11T11:32:21.126Z,68.81
2019-03-11T11:33:26.720Z,70.62
2019-03-11T11:34:32.343Z,70.23
2019-03-11T11:35:37.975Z,69.76
2019-03-11T11:36:43.259Z,70.49
2019-03-11T11:37:48.267Z,70.62
2019-03-11T11:38:53.937Z,72.27
2019-03-11T11:39:59.544Z,70.33
2019-03-11T11:41:04.421Z,69.94
2019-03-11T11:42:09.718Z,69.61
2019-03-11T11:43:15.297Z,69.56
2019-03-11T11:44:20.876Z,69.43
2019-03-11T11:45:25.760Z,68.98
2019-03-11T11:46:31.328Z,68.47
2019-03-11T11:47:37.000Z,69.68
2019-03-11T11:48:42.599Z,69.76
2019-03-11T11:49:48.188Z,68.96
2019-03-11T11:50:56.256Z,69.36
2019-03-11T11:52:01.981Z,69.27
2019-03-11T11:53:07.658Z,70.10
2019-03-11T11:54:13.273Z,70.37
2019-03-11T11:55:18.163Z,68.26
2019-03-11T11:56:23.796Z,68.49
2019-03-11T11:57:29.385Z,68.73
2019-03-11T11:58:34.993Z,70.25
2019-03-11T11:59:40.605Z,70.26
2019-03-11T12:00:47.825Z,70.45
2019-03-11T12:02:03.316Z,70.06
2019-03-11T12:03:01.817Z,70.32
2019-03-11T12:04:07.218Z,71.02
2019-03-11T12:05:12.113Z,70.85
2019-03-11T12:06:17.740Z,71.26
2019-03-11T12:07:23.393Z,70.49
2019-03-11T12:08:31.053Z,71.10
2019-03-11T12:09:36.626Z,71.00
2019-03-11T12:10:41.885Z,71.27
2019-03-11T12:11:47.550Z,72.36
2019-03-11T12:12:52.534Z,71.61
2019-03-11T12:13:58.117Z,71.64
2019-03-11T12:15:03.331Z,71.45
2019-03-11T12:16:08.636Z,72.06
2019-03-11T12:17:14.200Z,72.20
2019-03-11T12:18:19.791Z,72.33
2019-03-11T12:19:25.386Z,72.30
2019-03-11T12:20:30.294Z,71.22
2019-03-11T12:21:35.975Z,71.13
2019-03-11T12:22:42.832Z,71.27
2019-03-11T12:23:47.199Z,71.61
2019-03-11T12:24:52.737Z,71.45
2019-03-11T12:25:57.991Z,72.02
2019-03-11T12:27:03.588Z,72.47
2019-03-11T12:28:09.203Z,72.96
2019-03-11T12:29:14.783Z,73.06
2019-03-11T12:30:23.221Z,73.28
2019-03-11T12:31:28.887Z,73.32
2019-03-11T12:32:34.489Z,73.59
2019-03-11T12:33:39.746Z,73.97
2019-03-11T12:34:45.342Z,74.83
2019-03-11T12:35:50.944Z,74.65
2019-03-11T12:36:56.239Z,75.21
2019-03-11T12:38:01.500Z,76.08
2019-03-11T12:39:06.411Z,76.76
2019-03-11T12:40:12.619Z,76.69
2019-03-11T12:41:18.235Z,76.48
2019-03-11T12:42:23.875Z,76.26
2019-03-11T12:43:29.658Z,74.83
2019-03-11T12:44:35.296Z,75.20
2019-03-11T12:45:40.944Z,74.69
2019-03-11T12:46:46.556Z,74.82
2019-03-11T12:47:51.849Z,75.42
2019-03-11T12:48:57.458Z,75.19
2019-03-11T12:50:02.778Z,75.37
2019-03-11T12:51:08.539Z,77.03
2019-03-11T12:52:14.176Z,76.89
2019-03-11T12:53:19.815Z,76.53
2019-03-11T12:54:25.546Z,77.91
2019-03-11T12:55:31.166Z,77.96
2019-03-11T12:56:36.862Z,77.20
2019-03-11T12:57:42.223Z,75.69
2019-03-11T12:58:47.815Z,75.15
2019-03-11T12:59:53.394Z,75.30
2019-03-11T13:00:58.992Z,76.25
2019-03-11T13:02:04.344Z,76.63
2019-03-11T13:03:09.973Z,77.12
2019-03-11T13:04:15.568Z,78.33
2019-03-11T13:05:20.469Z,79.15
2019-03-11T13:06:26.065Z,79.41
2019-03-11T13:07:31.744Z,80.34
2019-03-11T13:08:37.361Z,80.81
2019-03-11T13:09:42.993Z,80.60
2019-03-11T13:10:48.604Z,80.23
2019-03-11T13:11:54.287Z,81.18
2019-03-11T13:12:59.596Z,80.22
2019-03-11T13:14:04.881Z,79.17
2019-03-11T13:15:09.821Z,79.33
2019-03-11T13:16:15.385Z,78.11
2019-03-11T13:17:20.994Z,77.92
2019-03-11T13:18:40.055Z,79.18
2019-03-11T13:19:45.642Z,77.70
2019-03-11T13:20:51.257Z,77.96
2019-03-11T13:21:56.846Z,78.44
2019-03-11T13:23:02.083Z,79.16
2019-03-11T13:24:07.237Z,79.37
2019-03-11T13:25:12.511Z,80.09
2019-03-11T13:26:17.740Z,79.93
2019-03-11T13:27:23.009Z,78.34
2019-03-11T13:28:29.053Z,77.50
2019-03-11T13:29:34.322Z,76.31
2019-03-11T13:30:39.940Z,76.89
2019-03-11T13:31:45.518Z,77.94
2019-03-11T13:32:51.144Z,77.89
2019-03-11T13:33:56.701Z,76.65
2019-03-11T13:35:02.286Z,76.49
2019-03-11T13:36:07.231Z,76.52
2019-03-11T13:37:12.872Z,75.96
2019-03-11T13:38:18.139Z,76.63
2019-03-11T13:39:23.425Z,76.77
2019-03-11T13:40:29.035Z,76.84
2019-03-11T13:41:34.674Z,76.94
2019-03-11T13:42:40.280Z,76.09
2019-03-11T13:43:48.450Z,76.56
2019-03-11T13:44:51.613Z,77.22
2019-03-11T13:45:56.528Z,76.92
2019-03-11T13:47:01.446Z,76.72
2019-03-11T13:48:06.764Z,75.04
2019-03-11T13:49:12.352Z,74.97
2019-03-11T13:50:20.723Z,75.86
2019-03-11T13:51:25.951Z,76.44
2019-03-11T13:52:31.184Z,77.12
2019-03-11T13:53:36.405Z,76.58
2019-03-11T13:54:42.044Z,75.08
2019-03-11T13:55:47.294Z,74.29
2019-03-11T13:56:52.961Z,72.43
2019-03-11T13:57:57.932Z,72.33
2019-03-11T13:59:03.561Z,71.93
2019-03-11T14:00:08.899Z,71.44
2019-03-11T14:01:14.519Z,70.46
2019-03-11T14:02:20.147Z,71.20
2019-03-11T14:03:25.794Z,70.83